Time;durP1;ratioP1;P1;durP2;ratioP2;P2;SDS_P1;SDS_P2;PMS_P1;PMS_P2;Temp;Humidity;BMP_temperature;BMP_pressure;BME280_temperature;BME280_humidity;BME280_pressure;Samples;Min_cycle;Max_cycle;Signal;HPM_P1;HPM_P2
2023/04/12 06:35:13;;;;;;;7.75;2.92;;;;;;;;;;5462354;23;20056;-89
2023/04/12 06:37:39;;;;;;;5.13;2.80;;;;;;;;;;4851587;29;20053;-91
2023/04/12 06:40:06;;;;;;;5.32;2.78;;;;;;;;;;4849430;29;20641;-90
2023/04/12 06:42:35;;;;;;;5.22;2.55;;;;;;;;;;4850307;29;20049;-90
2023/04/12 06:45:04;;;;;;;8.02;2.83;;;;;;;;;;4851226;29;20060;-90
2023/04/12 06:47:31;;;;;;;3.65;2.38;;;;;;;;;;4850519;29;20049;-89
2023/04/12 06:49:57;;;;;;;8.25;3.05;;;;;;;;;;4850412;29;20053;-91
2023/04/12 06:52:25;;;;;;;3.33;2.60;;;;;;;;;;4850464;29;20049;-91
2023/04/12 06:54:51;;;;;;;2.80;2.60;;;;;;;;;;4850304;29;20061;-91
2023/04/12 06:57:17;;;;;;;8.02;2.65;;;;;;;;;;4850061;29;20136;-92
2023/04/12 06:59:43;;;;;;;5.72;3.10;;;;;;;;;;4850603;29;20140;-91
2023/04/12 07:02:10;;;;;;;6.55;3.30;;;;;;;;;;4849607;29;20117;-91
2023/04/12 07:04:36;;;;;;;4.18;2.75;;;;;;;;;;4849936;29;20045;-92
2023/04/12 07:07:02;;;;;;;6.38;2.63;;;;;;;;;;4882274;29;20124;-92
2023/04/12 07:09:31;;;;;;;4.15;3.47;;;;;;;;;;4864561;29;20041;-91
2023/04/12 07:11:58;;;;;;;4.88;3.30;;;;;;;;;;4849251;29;20502;-90
2023/04/12 07:14:24;;;;;;;4.30;2.90;;;;;;;;;;4849332;29;20144;-90
2023/04/12 07:16:50;;;;;;;6.45;2.75;;;;;;;;;;4864662;29;20044;-89
2023/04/12 07:19:16;;;;;;;6.85;3.33;;;;;;;;;;4848760;29;20057;-90
2023/04/12 07:21:42;;;;;;;7.22;3.20;;;;;;;;;;4849055;29;20415;-91
2023/04/12 07:24:08;;;;;;;4.53;3.63;;;;;;;;;;4849254;29;20064;-91
2023/04/12 07:26:34;;;;;;;6.35;3.08;;;;;;;;;;4865427;29;20060;-89
2023/04/12 07:29:00;;;;;;;3.75;2.90;;;;;;;;;;4850238;29;20049;-89
2023/04/12 07:31:29;;;;;;;4.30;3.20;;;;;;;;;;4883060;29;20052;-91
2023/04/12 07:33:55;;;;;;;4.18;3.40;;;;;;;;;;4850608;29;20096;-90
2023/04/12 07:36:21;;;;;;;5.72;3.05;;;;;;;;;;4864830;29;20072;-90
2023/04/12 07:38:50;;;;;;;3.65;2.88;;;;;;;;;;4833224;29;20115;-90
2023/04/12 07:41:18;;;;;;;7.53;4.35;;;;;;;;;;4864179;29;20128;-89
2023/04/12 07:43:44;;;;;;;3.17;2.90;;;;;;;;;;4846678;29;20059;-89
2023/04/12 07:46:10;;;;;;;5.78;3.58;;;;;;;;;;4861613;29;20122;-89
2023/04/12 07:48:36;;;;;;;7.65;3.70;;;;;;;;;;4845311;29;20079;-87
2023/04/12 07:51:03;;;;;;;3.78;3.03;;;;;;;;;;4845997;29;20058;-91
2023/04/12 07:53:30;;;;;;;5.63;3.20;;;;;;;;;;4845250;29;20056;-89
2023/04/12 07:55:56;;;;;;;4.32;3.33;;;;;;;;;;4845526;29;20064;-89
2023/04/12 07:58:23;;;;;;;4.03;3.50;;;;;;;;;;4816111;29;20053;-90
2023/04/12 08:00:49;;;;;;;3.90;3.42;;;;;;;;;;4831302;29;20513;-89
2023/04/12 08:03:16;;;;;;;5.25;3.33;;;;;;;;;;4830677;29;20097;-90
2023/04/12 08:05:43;;;;;;;5.30;3.28;;;;;;;;;;4845965;29;20529;-89
2023/04/12 08:08:09;;;;;;;4.40;3.08;;;;;;;;;;4845153;29;20137;-91
2023/04/12 08:10:39;;;;;;;3.45;2.95;;;;;;;;;;4829997;29;20050;-92
2023/04/12 08:13:05;;;;;;;4.63;3.30;;;;;;;;;;4815554;29;20080;-92
2023/04/12 08:15:32;;;;;;;6.40;3.45;;;;;;;;;;4830377;29;20109;-90
2023/04/12 08:17:58;;;;;;;6.43;3.05;;;;;;;;;;4845041;29;20129;-89
2023/04/12 08:20:24;;;;;;;5.00;3.78;;;;;;;;;;4861253;29;20062;-88
2023/04/12 08:22:51;;;;;;;3.63;3.28;;;;;;;;;;4861435;29;20181;-89
2023/04/12 08:25:17;;;;;;;4.53;3.65;;;;;;;;;;4844767;29;20140;-90
2023/04/12 08:27:43;;;;;;;3.67;3.33;;;;;;;;;;4814337;29;20057;-88
2023/04/12 08:30:10;;;;;;;4.35;3.42;;;;;;;;;;4829624;29;20054;-89
2023/04/12 08:32:37;;;;;;;4.50;3.40;;;;;;;;;;4829343;29;20049;-89
2023/04/12 08:35:03;;;;;;;4.30;3.88;;;;;;;;;;4837622;29;20053;-89
2023/04/12 08:37:30;;;;;;;5.30;3.90;;;;;;;;;;4879529;29;20112;-89
2023/04/12 08:39:56;;;;;;;5.30;3.13;;;;;;;;;;4862519;29;20060;-89
2023/04/12 08:42:22;;;;;;;3.88;3.45;;;;;;;;;;4832606;29;20061;-88
2023/04/12 08:44:51;;;;;;;4.50;3.75;;;;;;;;;;4847782;29;20466;-89
2023/04/12 08:47:17;;;;;;;4.60;4.20;;;;;;;;;;4848331;29;20085;-87
2023/04/12 08:49:43;;;;;;;5.43;4.15;;;;;;;;;;4862592;29;20088;-89
2023/04/12 08:52:10;;;;;;;4.90;4.05;;;;;;;;;;4862960;29;20136;-89
2023/04/12 08:54:36;;;;;;;5.85;4.60;;;;;;;;;;4862724;29;20494;-89
2023/04/12 08:57:06;;;;;;;6.35;4.20;;;;;;;;;;4862741;29;20049;-88
2023/04/12 08:59:35;;;;;;;4.90;4.40;;;;;;;;;;4862375;29;20501;-90
2023/04/12 09:02:01;;;;;;;6.03;4.43;;;;;;;;;;4862892;29;20184;-89
2023/04/12 09:04:28;;;;;;;6.15;5.05;;;;;;;;;;4853369;29;20046;-88
2023/04/12 09:06:54;;;;;;;5.60;4.82;;;;;;;;;;4825726;29;20058;-90
2023/04/12 09:09:40;;;;;;;5.35;4.93;;;;;;;;;;4825652;29;20081;-89
2023/04/12 09:12:07;;;;;;;5.32;4.82;;;;;;;;;;4826687;29;20062;-88
2023/04/12 09:14:33;;;;;;;6.60;4.97;;;;;;;;;;4826328;29;20058;-89
2023/04/12 09:16:59;;;;;;;9.60;5.45;;;;;;;;;;4826535;29;20076;-89
2023/04/12 09:19:35;;;;;;;7.38;5.40;;;;;;;;;;4811590;29;20065;-90
2023/04/12 09:22:02;;;;;;;5.07;4.57;;;;;;;;;;4826789;29;20097;-90
2023/04/12 09:24:28;;;;;;;5.53;5.03;;;;;;;;;;4826395;29;20058;-88
2023/04/12 09:27:04;;;;;;;8.55;4.32;;;;;;;;;;4797179;29;20077;-89
2023/04/12 09:29:31;;;;;;;6.53;4.80;;;;;;;;;;4827572;29;20384;-89
2023/04/12 09:32:01;;;;;;;5.82;5.28;;;;;;;;;;4828664;29;20158;-89
2023/04/12 09:34:28;;;;;;;11.70;5.03;;;;;;;;;;4819006;29;20139;-90
2023/04/12 09:36:55;;;;;;;6.97;4.50;;;;;;;;;;4834523;29;20050;-88
2023/04/12 09:39:33;;;;;;;5.50;4.78;;;;;;;;;;4849893;29;20068;-88
2023/04/12 09:42:06;;;;;;;4.88;4.35;;;;;;;;;;4865183;29;20455;-88
2023/04/12 09:44:33;;;;;;;5.65;4.60;;;;;;;;;;4862770;29;20156;-86
2023/04/12 09:47:01;;;;;;;5.18;4.68;;;;;;;;;;4861963;29;20506;-87
2023/04/12 09:49:40;;;;;;;6.22;4.70;;;;;;;;;;4831136;29;20059;-88
2023/04/12 09:52:07;;;;;;;4.78;4.38;;;;;;;;;;4830883;29;20064;-88
2023/04/12 09:54:37;;;;;;;6.20;4.35;;;;;;;;;;4846176;29;20554;-89
2023/04/12 09:57:07;;;;;;;5.43;4.03;;;;;;;;;;4830376;29;20506;-88
2023/04/12 09:59:40;;;;;;;10.65;4.97;;;;;;;;;;4846251;29;20064;-87
2023/04/12 10:02:17;;;;;;;6.35;4.22;;;;;;;;;;4831276;29;20049;-87
2023/04/12 10:04:47;;;;;;;6.90;4.70;;;;;;;;;;4845476;29;20064;-87
2023/04/12 10:07:17;;;;;;;9.20;4.95;;;;;;;;;;4830549;29;20041;-90
2023/04/12 10:09:44;;;;;;;8.88;5.03;;;;;;;;;;4845079;29;20120;-89
2023/04/12 10:12:10;;;;;;;8.88;4.93;;;;;;;;;;4865368;29;20041;-86
2023/04/12 10:14:37;;;;;;;10.95;4.82;;;;;;;;;;4848453;29;20053;-86
2023/04/12 10:17:04;;;;;;;6.93;4.63;;;;;;;;;;4848301;29;20046;-89
2023/04/12 10:19:33;;;;;;;9.48;4.90;;;;;;;;;;4833807;29;20056;-87
2023/04/12 10:22:00;;;;;;;6.63;4.47;;;;;;;;;;4865028;29;20060;-87
2023/04/12 10:24:27;;;;;;;5.68;4.30;;;;;;;;;;4833680;29;20091;-85
2023/04/12 10:27:01;;;;;;;13.95;4.05;;;;;;;;;;4849576;29;20125;-85
2023/04/12 10:29:33;;;;;;;12.68;3.72;;;;;;;;;;4865984;29;20124;-86
2023/04/12 10:32:21;;;;;;;5.80;3.47;;;10.50;99.90;;;;;;4865418;29;20167;-87
2023/04/12 10:34:59;;;;;;;9.15;3.97;;;;;;;;;;4833150;29;20053;-89
2023/04/12 10:37:44;;;;;;;4.47;3.58;;;;;;;;;;4847694;29;20057;-88
2023/04/12 10:40:17;;;;;;;15.90;4.15;;;;;;;;;;4847990;29;20050;-88
2023/04/12 10:42:44;;;;;;;8.23;3.55;;;;;;;;;;4848518;29;20061;-88
2023/04/12 10:45:22;;;;;;;13.20;5.03;;;;;;;;;;4833606;29;20057;-87
2023/04/12 10:47:48;;;;;;;8.52;3.95;;;;;;;;;;4865096;29;20058;-84
2023/04/12 10:50:25;;;;;;;4.93;3.50;;;;;;;;;;4831300;29;20132;-85
2023/04/12 10:53:16;;;;;;;9.57;3.67;;;;;;;;;;4863751;29;20061;-85
2023/04/12 10:55:43;;;;;;;10.80;3.85;;;;;;;;;;4846821;29;20053;-84
2023/04/12 10:58:09;;;;;;;14.80;3.80;;;;;;;;;;4846676;29;20075;-85
2023/04/12 11:00:57;;;;;;;8.75;3.10;;;11.00;99.90;;;;;;4831395;29;20343;-85
2023/04/12 11:03:24;;;;;;;7.18;2.83;;;;;;;;;;4862831;29;20059;-85
2023/04/12 11:06:16;;;;;;;9.52;4.07;;;;;;;;;;4862529;29;20053;-85
2023/04/12 11:08:42;;;;;;;7.97;3.70;;;;;;;;;;4829629;29;20049;-85
2023/04/12 11:11:21;;;;;;;12.23;3.45;;;;;;;;;;4863092;29;20292;-85
2023/04/12 11:13:47;;;;;;;5.43;3.38;;;;;;;;;;4830914;29;20069;-85
2023/04/12 11:16:13;;;;;;;15.60;3.22;;;;;;;;;;4862903;29;20050;-85
2023/04/12 11:18:39;;;;;;;9.93;3.17;;;;;;;;;;4815793;29;20054;-85
2023/04/12 11:21:06;;;;;;;14.93;3.13;;;;;;;;;;4845923;29;20407;-85
2023/04/12 11:23:32;;;;;;;9.75;2.92;;;;;;;;;;4862396;29;20053;-85
2023/04/12 11:25:59;;;;;;;10.35;3.90;;;;;;;;;;4862368;29;20109;-85
2023/04/12 11:28:25;;;;;;;9.57;2.80;;;;;;;;;;4846077;29;20089;-85
2023/04/12 11:30:55;;;;;;;14.27;3.92;;;;;;;;;;4846242;29;20522;-85
2023/04/12 11:33:40;;;;;;;10.43;3.45;;;;;;;;;;4846150;29;20114;-85
2023/04/12 11:36:07;;;;;;;9.80;2.75;;;;;;;;;;4830516;29;20502;-85
2023/04/12 11:38:34;;;;;;;13.80;2.67;;;;;;;;;;4846867;29;20061;-85
2023/04/12 11:41:03;;;;;;;7.25;2.38;;;;;;;;;;4845766;29;20049;-85
2023/04/12 11:43:29;;;;;;;16.40;3.70;;;;;;;;;;4845563;29;20064;-85
2023/04/12 11:45:59;;;;;;;7.35;2.70;;;;;;;;;;4830608;29;20057;-85
2023/04/12 11:48:28;;;;;;;11.93;2.80;;;;;;;;;;4862613;29;20117;-86
2023/04/12 11:50:56;;;;;;;6.85;2.67;;;;;;;;;;4846034;29;20053;-85
2023/04/12 11:53:26;;;;;;;11.73;3.28;;;;;;;;;;4862539;29;20515;-85
2023/04/12 11:55:55;;;;;;;9.98;2.45;;;11.90;99.90;;;;;;4845570;29;20112;-85
2023/04/12 11:58:27;;;;;;;8.85;2.63;;;;;;;;;;4861748;29;20050;-84
2023/04/12 12:00:55;;;;;;;9.75;2.70;;;;;;;;;;4845346;29;20061;-85
2023/04/12 12:03:21;;;;;;;14.98;3.00;;;;;;;;;;4861949;29;20052;-85
2023/04/12 12:05:47;;;;;;;12.13;3.50;;;;;;;;;;4829248;29;20149;-85
2023/04/12 12:08:14;;;;;;;10.95;3.22;;;;;;;;;;4861507;29;20056;-86
2023/04/12 12:10:40;;;;;;;10.95;2.88;;;;;;;;;;4829701;29;20064;-86
2023/04/12 12:13:13;;;;;;;20.45;3.58;;;;;;;;;;4814714;29;20049;-85
2023/04/12 12:15:43;;;;;;;8.25;2.65;;;;;;;;;;4861419;29;20093;-84
2023/04/12 12:18:10;;;;;;;16.17;3.47;;;;;;;;;;4829759;29;20089;-85
2023/04/12 12:20:54;;;;;;;16.00;2.60;;;;;;;;;;4861350;29;20057;-85
2023/04/12 12:23:30;;;;;;;13.00;3.47;;;;;;;;;;4829555;29;20072;-85
2023/04/12 12:26:00;;;;;;;15.13;3.03;;;;;;;;;;4844606;29;20590;-85
2023/04/12 12:28:26;;;;;;;12.07;3.75;;;;;;;;;;4845214;29;20513;-85
2023/04/12 12:30:53;;;;;;;14.02;3.60;;;;;;;;;;4844829;29;20422;-85
2023/04/12 12:33:19;;;;;;;16.15;3.58;;;;;;;;;;4828926;29;20054;-85
2023/04/12 12:35:46;;;;;;;17.63;3.50;;;;;;;;;;4860828;29;20407;-85
2023/04/12 12:38:12;;;;;;;19.88;3.33;;;;;;;;;;4844563;29;20133;-84
2023/04/12 12:40:39;;;;;;;14.80;4.28;;;;;;;;;;4829275;29;20513;-84
2023/04/12 12:43:05;;;;;;;15.65;4.18;;;;;;;;;;4844537;29;20053;-85
2023/04/12 12:45:35;;;;;;;12.07;3.25;;;;;;;;;;4814022;29;20061;-85
2023/04/12 12:48:02;;;;;;;11.77;2.63;;;;;;;;;;4861041;29;20058;-85
2023/04/12 12:50:32;;;;;;;10.88;2.85;;;;;;;;;;4844654;29;20483;-85
2023/04/12 12:53:01;;;;;;;9.75;3.10;;;;;;;;;;4860974;29;20510;-85
2023/04/12 12:55:28;;;;;;;11.02;3.67;;;12.10;99.90;;;;;;4844324;29;20056;-85
2023/04/12 12:57:55;;;;;;;8.68;2.75;;;;;;;;;;4860581;29;20080;-85
2023/04/12 13:00:22;;;;;;;7.97;2.05;;;;;;;;;;4860942;29;20139;-86
2023/04/12 13:02:49;;;;;;;9.15;2.38;;;;;;;;;;4860770;29;20057;-86
2023/04/12 13:05:16;;;;;;;9.40;2.58;;;;;;;;;;4844167;29;20125;-86
2023/04/12 13:07:42;;;;;;;7.95;2.45;;;;;;;;;;4861480;29;20050;-86
2023/04/12 13:10:09;;;;;;;8.57;2.75;;;;;;;;;;4862216;29;20057;-86
2023/04/12 13:12:35;;;;;;;13.82;3.15;;;;;;;;;;4852781;29;20140;-86
2023/04/12 13:15:05;;;;;;;14.18;3.58;;;;;;;;;;4851586;29;20103;-85
2023/04/12 13:17:33;;;;;;;8.02;2.67;;;;;;;;;;4852091;29;20105;-86
2023/04/12 13:20:00;;;;;;;13.55;3.10;;;;;;;;;;4868287;29;20069;-86
2023/04/12 13:22:26;;;;;;;10.02;3.47;;;;;;;;;;4833541;29;20053;-85
2023/04/12 13:24:52;;;;;;;9.80;3.30;;;;;;;;;;4831769;29;20058;-85
2023/04/12 13:27:18;;;;;;;6.50;2.80;;;;;;;;;;4860947;29;20136;-85
2023/04/12 13:29:44;;;;;;;7.57;2.33;;;;;;;;;;4860764;29;20049;-85
2023/04/12 13:32:12;;;;;;;11.18;2.30;;;;;;;;;;4860453;29;20128;-86
2023/04/12 13:34:38;;;;;;;5.85;2.00;;;;;;;;;;4843165;29;20049;-87
2023/04/12 13:37:04;;;;;;;6.43;1.95;;;;;;;;;;4843616;29;20089;-86
2023/04/12 13:39:31;;;;;;;9.13;2.47;;;;;;;;;;4859694;29;20148;-86
2023/04/12 13:41:57;;;;;;;9.13;1.70;;;;;;;;;;4843764;29;20130;-86
2023/04/12 13:44:26;;;;;;;8.75;1.52;;;;;;;;;;4842988;29;20053;-86
2023/04/12 13:46:52;;;;;;;2.13;1.30;;;;;;;;;;4828378;29;20463;-86
2023/04/12 13:49:18;;;;;;;2.35;1.42;;;;;;;;;;4828374;29;20093;-87
2023/04/12 13:51:44;;;;;;;5.30;1.60;;;;;;;;;;4860337;29;20093;-89
2023/04/12 13:54:10;;;;;;;7.15;1.77;;;;;;;;;;4843670;29;20414;-88
2023/04/12 13:56:36;;;;;;;7.07;1.48;;;;;;;;;;4860421;29;20057;-89
2023/04/12 13:59:02;;;;;;;7.63;2.25;;;;;;;;;;4813141;29;20060;-86
2023/04/12 14:01:28;;;;;;;5.40;1.65;;;;;;;;;;4843395;29;20060;-91
2023/04/12 14:03:55;;;;;;;7.22;2.40;;;;;;;;;;4828285;29;20149;-92
2023/04/12 14:06:21;;;;;;;9.68;1.70;;;;;;;;;;4859920;29;20097;-86
2023/04/12 14:08:47;;;;;;;8.35;1.80;;;;;;;;;;4828770;29;20050;-87
2023/04/12 14:11:14;;;;;;;10.10;1.92;;;;;;;;;;4813371;29;20049;-92
2023/04/12 14:13:40;;;;;;;11.48;2.28;;;;;;;;;;4828670;29;20454;-87
2023/04/12 14:16:06;;;;;;;5.43;1.90;;;;;;;;;;4843333;29;20502;-93
2023/04/12 14:18:32;;;;;;;6.20;1.98;;;;;;;;;;4843034;29;20057;-89
2023/04/12 14:20:58;;;;;;;9.77;2.08;;;;;;;;;;4827887;29;20057;-88
2023/04/12 14:23:27;;;;;;;8.10;2.15;;;;;;;;;;4813114;29;20045;-89
2023/04/12 14:25:53;;;;;;;10.40;2.25;;;;;;;;;;4843424;29;20530;-89
2023/04/12 14:28:20;;;;;;;4.68;1.95;;;;;;;;;;4828482;29;20046;-89
2023/04/12 14:30:53;;;;;;;8.32;3.10;;;;;;;;;;4843488;29;20065;-92
2023/04/12 14:33:19;;;;;;;12.18;3.13;;;;;;;;;;4828428;29;20409;-88
2023/04/12 14:35:45;;;;;;;13.75;2.33;;;;;;;;;;4812130;29;20073;-88
2023/04/12 14:38:11;;;;;;;11.27;1.92;;;;;;;;;;4842936;29;20494;-87
2023/04/12 14:40:38;;;;;;;5.60;2.13;;;;;;;;;;4843137;29;20181;-89
2023/04/12 14:43:04;;;;;;;14.38;3.17;;;;;;;;;;4843605;29;20045;-87
2023/04/12 14:45:30;;;;;;;8.63;2.17;;;;;;;;;;4843078;29;20057;-90
2023/04/12 14:47:56;;;;;;;4.57;2.08;;;;;;;;;;4812844;29;20054;-90
2023/04/12 14:50:22;;;;;;;8.65;2.17;;;;;;;;;;4827668;29;20067;-89
2023/04/12 14:52:48;;;;;;;9.77;3.47;;;;;;;;;;4827665;29;20046;-88
2023/04/12 14:55:18;;;;;;;13.02;2.50;;;;;;;;;;4813000;29;20179;-88
2023/04/12 14:57:44;;;;;;;3.67;2.08;;;;;;;;;;4863054;29;20049;-94
2023/04/12 15:00:15;;;;;;;4.13;2.17;;;;;;;;;;4847469;29;20057;-89
2023/04/12 15:02:42;;;;;;;10.93;2.05;;;;;;;;;;4831641;29;20571;-89
2023/04/12 15:05:09;;;;;;;10.00;2.63;;;;;;;;;;4820758;29;20487;-88
2023/04/12 15:07:35;;;;;;;13.50;3.15;;;;;;;;;;4835480;29;20057;-88
2023/04/12 15:10:05;;;;;;;7.45;2.53;;;;;;;;;;4851965;29;20049;-88
2023/04/12 15:12:36;;;;;;;6.32;1.73;;;;;;;;;;4838035;29;20553;-88
2023/04/12 15:15:05;;;;;;;3.72;1.33;;;;;;;;;;4846203;29;20060;-89
2023/04/12 15:17:32;;;;;;;3.60;1.65;;;;;;;;;;4862799;29;20073;-88
2023/04/12 15:20:07;;;;;;;3.50;1.15;;;;;;;;;;4830875;29;20053;-87
2023/04/12 15:22:34;;;;;;;1.77;1.23;;;;;;;;;;4846048;29;20065;-88
2023/04/12 15:25:01;;;;;;;6.78;1.67;;;;;;;;;;4845977;29;20053;-87
2023/04/12 15:27:30;;;;;;;7.30;2.08;;;;;;;;;;4816268;29;20096;-90
2023/04/12 15:30:00;;;;;;;5.28;1.92;;;;;;;;;;4845874;29;20065;-89
2023/04/12 15:32:28;;;;;;;6.82;2.63;;;;;;;;;;4830922;29;20304;-88
2023/04/12 15:34:57;;;;;;;6.25;1.60;;;;;;;;;;4845401;29;20061;-91
2023/04/12 15:37:27;;;;;;;3.78;1.42;;;;;;;;;;4845721;29;20065;-89
2023/04/12 15:39:53;;;;;;;6.05;1.38;;;;;;;;;;4862105;29;20053;-88
2023/04/12 15:42:19;;;;;;;3.25;1.30;;;;;;;;;;4845213;29;20064;-88
2023/04/12 15:44:46;;;;;;;2.58;1.20;;;;;;;;;;4830148;29;20057;-88
2023/04/12 15:47:12;;;;;;;6.50;1.42;;;;;;;;;;4830302;29;20053;-88
2023/04/12 15:49:41;;;;;;;4.82;1.95;;;;;;;;;;4845517;29;20096;-87
2023/04/12 15:52:07;;;;;;;3.92;1.52;;;;;;;;;;4845182;29;20418;-87
2023/04/12 15:54:33;;;;;;;5.03;1.63;;;;;;;;;;4845235;29;20110;-88
2023/04/12 15:57:08;;;;;;;3.60;1.60;;;;;;;;;;4844979;29;20502;-87
2023/04/12 15:59:36;;;;;;;3.53;1.65;;;;;;;;;;4829842;29;20059;-87
2023/04/12 16:02:05;;;;;;;4.00;1.58;;;;;;;;;;4845444;29;20129;-87
2023/04/12 16:04:32;;;;;;;1.63;1.15;;;;;;;;;;4844755;29;20437;-87
2023/04/12 16:07:03;;;;;;;5.97;1.45;;;;;;;;;;4861387;29;20506;-88
2023/04/12 16:09:34;;;;;;;2.63;1.35;;;13.10;99.90;;;;;;4860737;29;20137;-88
2023/04/12 16:12:03;;;;;;;1.70;1.10;;;;;;;;;;4845303;29;20602;-88
2023/04/12 16:14:29;;;;;;;3.60;1.10;;;;;;;;;;4844986;29;20049;-87
2023/04/12 16:16:58;;;;;;;4.18;1.42;;;;;;;;;;4844951;29;20057;-88
2023/04/12 16:19:24;;;;;;;10.68;1.35;;;;;;;;;;4861689;29;20057;-87
2023/04/12 16:21:50;;;;;;;2.70;1.17;;;;;;;;;;4829792;29;20058;-87
2023/04/12 16:24:16;;;;;;;2.72;1.45;;;;;;;;;;4814566;29;20056;-87
2023/04/12 16:26:43;;;;;;;2.35;1.17;;;;;;;;;;4829327;29;20061;-88
2023/04/12 16:29:10;;;;;;;2.70;1.30;;;;;;;;;;4814792;29;20050;-88
2023/04/12 16:31:37;;;;;;;5.35;1.23;;;;;;;;;;4814335;29;20061;-87
2023/04/12 16:34:03;;;;;;;6.47;1.75;;;;;;;;;;4829207;29;20063;-88
2023/04/12 16:36:30;;;;;;;5.28;1.65;;;;;;;;;;4844329;29;20053;-88
2023/04/12 16:38:58;;;;;;;4.82;1.70;;;;;;;;;;4829280;29;20057;-87
2023/04/12 16:41:24;;;;;;;6.30;2.15;;;;;;;;;;4829254;29;20117;-88
2023/04/12 16:43:52;;;;;;;4.75;1.48;;;;;;;;;;4829059;29;20049;-87
2023/04/12 16:46:19;;;;;;;7.25;1.83;;;;;;;;;;4814300;29;20053;-88
2023/04/12 16:48:46;;;;;;;4.53;1.40;;;;;;;;;;4829086;29;20140;-87
2023/04/12 16:51:12;;;;;;;4.90;1.55;;;;;;;;;;4829000;29;20100;-88
2023/04/12 16:53:38;;;;;;;6.75;1.40;;;;;;;;;;4829156;29;20065;-88
2023/04/12 16:56:05;;;;;;;2.53;1.45;;;;;;;;;;4844492;29;20075;-87
2023/04/12 16:58:34;;;;;;;5.03;1.52;;;;;;;;;;4844164;29;20058;-88
2023/04/12 17:01:01;;;;;;;4.65;1.35;;;;;;;;;;4844456;29;20084;-88
2023/04/12 17:03:27;;;;;;;3.50;1.90;;;;;;;;;;4828424;29;20064;-87
2023/04/12 17:05:53;;;;;;;6.53;1.92;;;;;;;;;;4814014;29;20392;-88
2023/04/12 17:08:19;;;;;;;5.28;1.80;;;;;;;;;;4844394;29;20511;-88
2023/04/12 17:10:45;;;;;;;7.72;1.95;;;;;;;;;;4815158;29;20414;-87
2023/04/12 17:13:14;;;;;;;4.90;1.60;;;12.50;99.90;;;;;;4818907;29;20049;-87
2023/04/12 17:15:41;;;;;;;5.13;1.85;;;;;;;;;;4836838;29;20054;-88
2023/04/12 17:18:08;;;;;;;2.15;1.23;;;;;;;;;;4837809;29;20073;-88
2023/04/12 17:20:35;;;;;;;7.50;1.73;;;;;;;;;;4835583;29;20118;-87
2023/04/12 17:23:02;;;;;;;1.48;1.10;;;;;;;;;;4833567;29;20082;-87
2023/04/12 17:25:29;;;;;;;3.75;1.52;;;;;;;;;;4831431;29;20057;-88
2023/04/12 17:27:56;;;;;;;2.50;1.25;;;;;;;;;;4845635;29;20073;-88
2023/04/12 17:30:22;;;;;;;2.65;1.35;;;;;;;;;;4815865;29;20084;-88
2023/04/12 17:32:50;;;;;;;2.53;1.13;;;;;;;;;;4829269;29;20065;-87
2023/04/12 17:35:17;;;;;;;1.67;0.98;;;;;;;;;;4828588;29;20067;-87
2023/04/12 17:37:43;;;;;;;2.80;1.30;;;;;;;;;;4828628;29;20057;-87
2023/04/12 17:40:09;;;;;;;2.80;0.90;;;;;;;;;;4828123;29;20132;-88
2023/04/12 17:42:36;;;;;;;2.88;1.20;;;;;;;;;;4828693;29;20057;-87
2023/04/12 17:45:05;;;;;;;5.40;2.05;;;;;;;;;;4813524;29;20061;-87
2023/04/12 17:47:36;;;;;;;6.20;1.65;;;;;;;;;;4843706;29;20065;-87
2023/04/12 17:50:02;;;;;;;3.85;1.38;;;;;;;;;;4828637;29;20084;-87
2023/04/12 17:52:28;;;;;;;2.35;1.23;;;;;;;;;;4843577;29;20061;-87
2023/04/12 17:54:54;;;;;;;1.75;1.13;;;;;;;;;;4813273;29;20395;-87
2023/04/12 17:57:21;;;;;;;2.70;0.90;;;;;;;;;;4813286;29;20418;-87
2023/04/12 17:59:47;;;;;;;3.70;1.40;;;;;;;;;;4813192;29;20061;-87
2023/04/12 18:02:15;;;;;;;1.90;0.88;;;;;;;;;;4813329;29;20073;-87
2023/04/12 18:04:42;;;;;;;1.70;1.15;;;;;;;;;;4828429;29;20053;-88
2023/04/12 18:07:08;;;;;;;1.70;0.77;;;;;;;;;;4828290;29;20085;-87
2023/04/12 18:09:34;;;;;;;5.43;1.25;;;;;;;;;;4843808;29;20090;-88
2023/04/12 18:12:00;;;;;;;2.58;0.80;;;;;;;;;;4843697;29;20054;-88
2023/04/12 18:14:26;;;;;;;3.35;1.10;;;;;;;;;;4828584;29;20133;-90
2023/04/12 18:16:52;;;;;;;4.63;1.45;;;;;;;;;;4843857;29;20049;-89
2023/04/12 18:19:18;;;;;;;2.50;1.17;;;;;;;;;;4813576;29;20530;-89
2023/04/12 18:21:48;;;;;;;6.28;1.20;;;;;;;;;;4830071;29;20053;-86
2023/04/12 18:24:15;;;;;;;2.10;1.23;;;;;;;;;;4829813;29;20076;-89
2023/04/12 18:26:42;;;;;;;5.50;1.10;;;;;;;;;;4828491;29;20053;-93
2023/04/12 18:29:11;;;;;;;3.80;2.17;;;;;;;;;;4828977;29;20186;-89
2023/04/12 18:31:40;;;;;;;5.32;1.35;;;;;;;;;;4845374;29;20060;-91
2023/04/12 18:34:10;;;;;;;4.15;1.35;;;;;;;;;;4865487;29;20113;-90
2023/04/12 18:36:36;;;;;;;5.18;1.83;;;;;;;;;;4833605;29;20058;-89
2023/04/12 18:39:06;;;;;;;4.10;1.10;;;;;;;;;;4848949;29;20128;-88
2023/04/12 18:41:36;;;;;;;3.78;1.10;;;;;;;;;;4849002;29;20101;-88
2023/04/12 18:44:03;;;;;;;6.38;1.30;;;;;;;;;;4847128;29;20069;-88
2023/04/12 18:46:29;;;;;;;31.35;2.83;;;;;;;;;;4831894;29;20426;-88
2023/04/12 18:48:55;;;;;;;5.40;1.50;;;;;;;;;;4832038;29;20088;-88
2023/04/12 18:51:22;;;;;;;6.45;2.33;;;;;;;;;;4831890;29;20053;-88
2023/04/12 18:53:49;;;;;;;7.53;1.90;;;;;;;;;;4831635;29;20122;-88
2023/04/12 18:56:21;;;;;;;5.82;2.05;;;;;;;;;;4831819;29;20280;-89
2023/04/12 18:58:48;;;;;;;5.68;2.22;;;;;;;;;;4831902;29;20118;-90
2023/04/12 19:01:14;;;;;;;11.95;2.25;;;;;;;;;;4847412;29;20052;-89
2023/04/12 19:03:43;;;;;;;3.72;1.58;;;;;;;;;;4817106;29;20101;-87
2023/04/12 19:06:11;;;;;;;7.72;2.25;;;;;;;;;;4831678;29;20092;-89
2023/04/12 19:08:38;;;;;;;6.40;2.08;;;;;;;;;;4831858;29;20061;-89
2023/04/12 19:11:05;;;;;;;7.88;1.77;;;;;;;;;;4831604;29;20053;-88
2023/04/12 19:13:31;;;;;;;6.05;1.42;;;;;;;;;;4832060;29;20050;-88
2023/04/12 19:15:58;;;;;;;6.47;1.63;;;;;;;;;;4831605;29;20104;-89
2023/04/12 19:18:26;;;;;;;1.88;1.60;;;;;;;;;;4818004;29;20064;-91
2023/04/12 19:20:55;;;;;;;6.43;1.90;;;;;;;;;;4832285;29;20084;-89
2023/04/12 19:23:23;;;;;;;8.30;2.50;;;;;;;;;;4848638;29;20471;-90
2023/04/12 19:25:49;;;;;;;9.35;2.20;;;;;;;;;;4832464;29;20061;-90
2023/04/12 19:28:18;;;;;;;7.30;2.10;;;;;;;;;;4833572;29;20057;-90
2023/04/12 19:30:44;;;;;;;4.82;2.20;;;;;;;;;;4834046;29;20058;-89
2023/04/12 19:33:13;;;;;;;6.55;2.08;;;;;;;;;;4833418;29;20076;-92
2023/04/12 19:35:45;;;;;;;9.60;2.90;;;;;;;;;;4832503;29;20059;-89
2023/04/12 19:38:14;;;;;;;12.85;3.28;;;;;;;;;;4818777;29;20081;-91
2023/04/12 19:40:41;;;;;;;7.35;2.83;;;;;;;;;;4832310;29;20062;-91
2023/04/12 19:43:07;;;;;;;6.03;2.88;;;;;;;;;;4833782;29;20059;-89
2023/04/12 19:45:34;;;;;;;9.88;3.88;;;;;;;;;;4833251;29;20167;-89
2023/04/12 19:48:14;;;;;;;7.93;2.10;;;;;;;;;;4849106;29;20471;-89
2023/04/12 19:50:41;;;;;;;5.15;2.00;;;;;;;;;;4817994;29;20041;-91
2023/04/12 19:53:20;;;;;;;;;;;;;;;;;;;;;
2023/04/12 19:55:51;;;;;;;5.47;2.33;;;;;;;;;;4865579;29;20056;-88
2023/04/12 19:58:17;;;;;;;15.20;6.15;;;;;;;;;;4823126;29;20049;-91
2023/04/12 20:00:57;;;;;;;37.10;22.65;;;;;;;;;;4844435;29;20049;-92
2023/04/12 20:03:27;;;;;;;38.05;26.55;;;;;;;;;;4842759;29;20053;-92
2023/04/12 20:05:53;;;;;;;20.85;13.57;;;;;;;;;;4841884;29;20116;-92
2023/04/12 20:08:22;;;;;;;16.90;6.72;;;;;;;;;;4854741;29;20057;-92
2023/04/12 20:10:53;;;;;;;7.32;4.05;;;;;;;;;;4825146;29;20057;-91
2023/04/12 20:13:39;;;;;;;4.03;2.60;;;;;;;;;;4838272;29;20142;-94
2023/04/12 20:16:08;;;;;;;4.10;2.08;;;;;;;;;;4837042;29;20089;-91
2023/04/12 20:18:43;;;;;;;6.75;1.88;;;;;;;;;;4823475;29;20045;-96
2023/04/12 20:21:10;;;;;;;4.72;1.70;;;;;;;;;;4834151;29;20081;-90
2023/04/12 20:23:45;;;;;;;6.55;2.15;;;;;;;;;;4831301;29;20056;-91
2023/04/12 20:26:14;;;;;;;3.13;2.13;;;;;;;;;;4815497;29;20054;-90
2023/04/12 20:28:43;;;;;;;8.88;3.88;;;;;;;;;;4830624;29;20045;-90
2023/04/12 20:31:16;;;;;;;3.42;2.58;;;;;;;;;;4831141;29;20055;-89
2023/04/12 20:33:42;;;;;;;6.50;2.03;;;;;;;;;;4829989;29;20272;-89
2023/04/12 20:36:14;;;;;;;4.60;1.95;;;;;;;;;;4830085;29;20140;-90
2023/04/12 20:38:41;;;;;;;11.75;2.15;;;;;;;;;;4830512;29;20053;-89
2023/04/12 20:41:10;;;;;;;8.07;2.47;;;;;;;;;;4830213;29;20061;-90
2023/04/12 20:43:44;;;;;;;3.20;2.20;;;;;;;;;;4830421;29;20081;-89
2023/04/12 20:46:14;;;;;;;1.90;1.58;;;;;;;;;;4829807;29;20056;-90
2023/04/12 20:48:46;;;;;;;3.30;2.17;;;;;;;;;;4829974;29;20053;-88
2023/04/12 20:51:13;;;;;;;3.47;1.55;;;;;;;;;;4815459;29;20423;-90
2023/04/12 20:53:39;;;;;;;7.32;2.03;;;;;;;;;;4844370;29;20587;-89
2023/04/12 20:56:07;;;;;;;7.93;2.03;;;;;;;;;;4829634;29;20049;-89
2023/04/12 20:58:34;;;;;;;7.78;1.88;;;;;;;;;;4861542;29;20136;-90
2023/04/12 21:01:13;;;;;;;7.85;2.08;;;;;;;;;;4829813;29;20056;-89
2023/04/12 21:03:39;;;;;;;2.20;2.00;;;;;;;;;;4829248;29;20528;-90
2023/04/12 21:06:05;;;;;;;2.85;1.92;;;;;;;;;;4829733;29;20065;-90
2023/04/12 21:08:34;;;;;;;3.88;2.17;;;;;;;;;;4829295;29;20089;-89
2023/04/12 21:11:04;;;;;;;6.22;1.90;;;;;;;;;;4829199;29;20061;-90
2023/04/12 21:13:32;;;;;;;6.53;2.38;;;;;;;;;;4815079;29;20057;-90
2023/04/12 21:15:59;;;;;;;2.47;1.50;;;;;;;;;;4830656;29;20069;-89
2023/04/12 21:18:27;;;;;;;3.22;1.70;;;;;;;;;;4849873;29;20054;-90